Phillipstown, Illinois
Current Conditions -  °F | °C
As of 6:55 AM on Tuesday 21 Oct 2014 (Local Time) from KCUL Reporting Station
Clear Clear  
Wind Chill: 44°   Ceiling: Unl
Heat Index: 44°   Visibility: 10mi
Dew Point: 44°   Wind: 3mph
Humidity: 100%   Direction: 300°WNW
Pressure: 30.05"   Gusts: NA
Location:  38.1681°N, 88.0517°W
Report Text: KCUL 211155Z AUTO 30003KT 10SM CLR 06/06 A3005 RMK AO2 T00640064 10090 20059
Loading
Personal Weather Stations






























Interactive Weather Map
Tropical Storm Tracking
New forecast layout! Learn more

10-Day Weather Forecast

Advertisements
Track Severe Weather on mobile